Kirishima Maru No.5 — JD2506 — position and weather

sailwx.info

Track history (hours):
 
Tides and Currents Weather Stations Pressure Air Temp Water Temp Dewpoint Dewpoint Depression Visibility Wind Speed Wind Dir Waves Ship Positions

Kirishima Maru No.5

Last reported at 2016-Aug-14 22:06 UTC. Time now 2016-Aug-23 21:06 UTC.
Position N 36°18' E 141°01'.
Warning: this ship's position is 8 days out of date.

Length 105 m; draft 5.4 m.

Type: Tanker. MMSI: 431000338.

Date/timePositionNaut miles runAvg speedWind from/ knotsBaromVisibWave heightAir tempDewpointWater temp
2016-Aug-14 22:06N 36°18' E 141°01'814.8
2016-Aug-14 21:32N 36°10' E 141°00'1515.0
2016-Aug-14 20:34N 35°55' E 140°59'1614.6
2016-Aug-14 19:27N 35°39' E 140°57'1213.9
2016-Aug-14 18:33N 35°29' E 140°48'1514.7
2016-Aug-14 17:31N 35°17' E 140°37'1616.3
2016-Aug-14 16:33N 35°05' E 140°25'1716.6
2016-Aug-14 15:33N 34°56' E 140°07'25912.3
2016-Aug-13 18:30N 34°06' E 134°59'2114.8
2016-Aug-13 17:05N 34°27' E 135°01'815.0
2016-Aug-13 16:33N 34°34' E 135°03'2 0.0
2016-Aug-12 02:33N 34°35' E 135°04'1413.2
2016-Aug-12 01:29N 34°21' E 135°01'24511.1
2016-Aug-11 03:27N 34°51' E 139°57'1313.9
2016-Aug-11 02:32N 34°57' E 140°11'4113.7
2016-Aug-10 23:33N 35°26' E 140°46'1613.8
2016-Aug-10 22:25N 35°39' E 140°57'1314.4
2016-Aug-10 21:29N 35°52' E 140°58'1414.7
2016-Aug-10 20:33N 36°06' E 141°00'1514.6
2016-Aug-10 19:33N 36°20' E 141°02'1414.3
2016-Aug-10 18:33N 36°34' E 141°03'  
2016-Aug-05 20:14N 35°18' E 140°37'2614.9
2016-Aug-05 18:29N 34°59' E 140°15'1414.8
2016-Aug-05 17:32N 34°52' E 140°00'1814.8
2016-Aug-05 16:17N 34°44' E 139°40'  
Track history (hours):
 
Tides and Currents Weather Stations Pressure Air Temp Water Temp Dewpoint Dewpoint Depression Visibility Wind Speed Wind Dir Waves Ship Positions

Kirishima Maru No.5

Last reported at 2016-Aug-14 22:06 UTC. Time now 2016-Aug-23 21:06 UTC.
Position N 36°18' E 141°01'.
Warning: this ship's position is 8 days out of date.

Length 105 m; draft 5.4 m.

Type: Tanker. MMSI: 431000338.

Date/timePositionNaut miles runAvg speedWind from/ knotsBaromVisibWave heightAir tempDewpointWater temp
2016-Aug-14 22:06N 36°18' E 141°01'814.8
2016-Aug-14 21:32N 36°10' E 141°00'1515.0
2016-Aug-14 20:34N 35°55' E 140°59'1614.6
2016-Aug-14 19:27N 35°39' E 140°57'1213.9
2016-Aug-14 18:33N 35°29' E 140°48'1514.7
2016-Aug-14 17:31N 35°17' E 140°37'1616.3
2016-Aug-14 16:33N 35°05' E 140°25'1716.6
2016-Aug-14 15:33N 34°56' E 140°07'25912.3
2016-Aug-13 18:30N 34°06' E 134°59'2114.8
2016-Aug-13 17:05N 34°27' E 135°01'815.0
2016-Aug-13 16:33N 34°34' E 135°03'2 0.0
2016-Aug-12 02:33N 34°35' E 135°04'1413.2
2016-Aug-12 01:29N 34°21' E 135°01'24511.1
2016-Aug-11 03:27N 34°51' E 139°57'1313.9
2016-Aug-11 02:32N 34°57' E 140°11'4113.7
2016-Aug-10 23:33N 35°26' E 140°46'1613.8
2016-Aug-10 22:25N 35°39' E 140°57'1314.4
2016-Aug-10 21:29N 35°52' E 140°58'1414.7
2016-Aug-10 20:33N 36°06' E 141°00'1514.6
2016-Aug-10 19:33N 36°20' E 141°02'1414.3
2016-Aug-10 18:33N 36°34' E 141°03'  
2016-Aug-05 20:14N 35°18' E 140°37'2614.9
2016-Aug-05 18:29N 34°59' E 140°15'1414.8
2016-Aug-05 17:32N 34°52' E 140°00'1814.8
2016-Aug-05 16:17N 34°44' E 139°40'  

Dump ship's entire track history